sensor_id;sensor_type;location;lat;lon;timestamp;P1;durP1;ratioP1;P2;durP2;ratioP2
78324;SDS011;67584;51.400;6.692;2023-11-19T00:01:17;4.40;;;3.38;;
78324;SDS011;67584;51.400;6.692;2023-11-19T00:03:43;3.10;;;2.72;;
78324;SDS011;67584;51.400;6.692;2023-11-19T00:06:09;3.95;;;3.28;;
78324;SDS011;67584;51.400;6.692;2023-11-19T00:08:36;3.78;;;2.42;;
78324;SDS011;67584;51.400;6.692;2023-11-19T00:11:02;3.85;;;2.35;;
78324;SDS011;67584;51.400;6.692;2023-11-19T00:13:28;2.08;;;1.83;;
78324;SDS011;67584;51.400;6.692;2023-11-19T00:15:53;4.20;;;2.60;;
78324;SDS011;67584;51.400;6.692;2023-11-19T00:18:19;3.08;;;2.58;;
78324;SDS011;67584;51.400;6.692;2023-11-19T00:20:45;2.05;;;1.63;;
78324;SDS011;67584;51.400;6.692;2023-11-19T00:23:11;2.63;;;2.05;;
78324;SDS011;67584;51.400;6.692;2023-11-19T00:25:36;2.60;;;2.40;;
78324;SDS011;67584;51.400;6.692;2023-11-19T00:28:03;5.57;;;2.35;;
78324;SDS011;67584;51.400;6.692;2023-11-19T00:30:29;2.45;;;2.25;;
78324;SDS011;67584;51.400;6.692;2023-11-19T00:32:56;4.38;;;2.30;;
78324;SDS011;67584;51.400;6.692;2023-11-19T00:35:22;2.50;;;2.30;;
78324;SDS011;67584;51.400;6.692;2023-11-19T00:37:47;3.17;;;2.28;;
78324;SDS011;67584;51.400;6.692;2023-11-19T00:40:13;2.10;;;1.85;;
78324;SDS011;67584;51.400;6.692;2023-11-19T00:42:41;2.50;;;2.30;;
78324;SDS011;67584;51.400;6.692;2023-11-19T00:45:06;2.78;;;2.55;;
78324;SDS011;67584;51.400;6.692;2023-11-19T00:47:38;2.80;;;2.28;;
78324;SDS011;67584;51.400;6.692;2023-11-19T00:50:03;6.35;;;2.90;;
78324;SDS011;67584;51.400;6.692;2023-11-19T00:52:29;4.78;;;2.90;;
78324;SDS011;67584;51.400;6.692;2023-11-19T00:54:56;3.20;;;2.28;;
78324;SDS011;67584;51.400;6.692;2023-11-19T00:57:22;3.78;;;2.78;;
78324;SDS011;67584;51.400;6.692;2023-11-19T00:59:49;4.13;;;3.60;;
78324;SDS011;67584;51.400;6.692;2023-11-19T01:02:14;5.82;;;4.82;;
78324;SDS011;67584;51.400;6.692;2023-11-19T01:04:40;8.00;;;5.55;;
78324;SDS011;67584;51.400;6.692;2023-11-19T01:07:06;8.82;;;5.38;;
78324;SDS011;67584;51.400;6.692;2023-11-19T01:09:32;6.18;;;4.88;;
78324;SDS011;67584;51.400;6.692;2023-11-19T01:12:01;7.97;;;4.38;;
78324;SDS011;67584;51.400;6.692;2023-11-19T01:14:27;5.80;;;3.25;;
78324;SDS011;67584;51.400;6.692;2023-11-19T01:16:53;4.43;;;2.78;;
78324;SDS011;67584;51.400;6.692;2023-11-19T01:19:19;5.38;;;3.72;;
78324;SDS011;67584;51.400;6.692;2023-11-19T01:21:47;7.25;;;4.07;;
78324;SDS011;67584;51.400;6.692;2023-11-19T01:24:13;4.18;;;3.22;;
78324;SDS011;67584;51.400;6.692;2023-11-19T01:26:39;4.53;;;3.45;;
78324;SDS011;67584;51.400;6.692;2023-11-19T01:29:13;4.50;;;2.72;;
78324;SDS011;67584;51.400;6.692;2023-11-19T01:31:40;4.05;;;2.70;;
78324;SDS011;67584;51.400;6.692;2023-11-19T01:34:06;3.25;;;2.50;;
78324;SDS011;67584;51.400;6.692;2023-11-19T01:36:32;3.10;;;2.40;;
78324;SDS011;67584;51.400;6.692;2023-11-19T01:38:57;2.83;;;1.73;;
78324;SDS011;67584;51.400;6.692;2023-11-19T01:41:23;2.50;;;2.08;;
78324;SDS011;67584;51.400;6.692;2023-11-19T01:43:50;2.80;;;2.05;;
78324;SDS011;67584;51.400;6.692;2023-11-19T01:46:15;2.03;;;1.60;;
78324;SDS011;67584;51.400;6.692;2023-11-19T01:48:45;2.10;;;1.90;;
78324;SDS011;67584;51.400;6.692;2023-11-19T01:51:12;2.45;;;2.10;;
78324;SDS011;67584;51.400;6.692;2023-11-19T01:53:41;2.38;;;2.17;;
78324;SDS011;67584;51.400;6.692;2023-11-19T01:56:08;2.20;;;2.00;;
78324;SDS011;67584;51.400;6.692;2023-11-19T01:58:37;3.33;;;2.45;;
78324;SDS011;67584;51.400;6.692;2023-11-19T02:01:05;2.97;;;1.85;;
78324;SDS011;67584;51.400;6.692;2023-11-19T02:03:32;2.47;;;2.13;;
78324;SDS011;67584;51.400;6.692;2023-11-19T02:05:59;2.90;;;2.20;;
78324;SDS011;67584;51.400;6.692;2023-11-19T02:08:25;3.28;;;1.92;;
78324;SDS011;67584;51.400;6.692;2023-11-19T02:10:51;3.47;;;2.25;;
78324;SDS011;67584;51.400;6.692;2023-11-19T02:13:20;2.75;;;1.73;;
78324;SDS011;67584;51.400;6.692;2023-11-19T02:15:46;3.40;;;2.10;;
78324;SDS011;67584;51.400;6.692;2023-11-19T02:18:25;10.60;;;3.25;;
78324;SDS011;67584;51.400;6.692;2023-11-19T02:20:56;9.30;;;4.20;;
78324;SDS011;67584;51.400;6.692;2023-11-19T02:23:23;7.38;;;2.60;;
78324;SDS011;67584;51.400;6.692;2023-11-19T02:26:13;4.10;;;2.28;;
78324;SDS011;67584;51.400;6.692;2023-11-19T02:28:47;4.55;;;2.00;;
78324;SDS011;67584;51.400;6.692;2023-11-19T02:31:13;4.38;;;1.70;;
78324;SDS011;67584;51.400;6.692;2023-11-19T02:33:39;6.15;;;1.95;;
78324;SDS011;67584;51.400;6.692;2023-11-19T02:36:05;4.47;;;2.17;;
78324;SDS011;67584;51.400;6.692;2023-11-19T02:38:33;3.28;;;1.90;;
78324;SDS011;67584;51.400;6.692;2023-11-19T02:40:59;3.13;;;1.90;;
78324;SDS011;67584;51.400;6.692;2023-11-19T02:43:28;5.63;;;2.05;;
78324;SDS011;67584;51.400;6.692;2023-11-19T02:45:56;5.90;;;2.08;;
78324;SDS011;67584;51.400;6.692;2023-11-19T02:48:22;3.33;;;1.75;;
78324;SDS011;67584;51.400;6.692;2023-11-19T02:50:48;3.65;;;1.92;;
78324;SDS011;67584;51.400;6.692;2023-11-19T02:53:13;4.80;;;2.00;;
78324;SDS011;67584;51.400;6.692;2023-11-19T02:55:39;5.43;;;2.10;;
78324;SDS011;67584;51.400;6.692;2023-11-19T02:58:06;4.15;;;2.00;;
78324;SDS011;67584;51.400;6.692;2023-11-19T03:00:45;6.05;;;2.13;;
78324;SDS011;67584;51.400;6.692;2023-11-19T03:03:19;2.95;;;1.65;;
78324;SDS011;67584;51.400;6.692;2023-11-19T03:05:47;4.47;;;2.40;;
78324;SDS011;67584;51.400;6.692;2023-11-19T03:08:16;4.85;;;2.00;;
78324;SDS011;67584;51.400;6.692;2023-11-19T03:10:42;2.78;;;2.17;;
78324;SDS011;67584;51.400;6.692;2023-11-19T03:13:11;4.05;;;2.08;;
78324;SDS011;67584;51.400;6.692;2023-11-19T03:15:39;6.53;;;2.40;;
78324;SDS011;67584;51.400;6.692;2023-11-19T03:18:05;4.38;;;2.17;;
78324;SDS011;67584;51.400;6.692;2023-11-19T03:20:31;5.57;;;2.80;;
78324;SDS011;67584;51.400;6.692;2023-11-19T03:22:57;9.23;;;2.47;;
78324;SDS011;67584;51.400;6.692;2023-11-19T03:25:24;5.63;;;2.60;;
78324;SDS011;67584;51.400;6.692;2023-11-19T03:27:52;5.55;;;1.92;;
78324;SDS011;67584;51.400;6.692;2023-11-19T03:30:18;5.55;;;2.65;;
78324;SDS011;67584;51.400;6.692;2023-11-19T03:32:46;5.30;;;2.33;;
78324;SDS011;67584;51.400;6.692;2023-11-19T03:35:11;7.32;;;2.33;;
78324;SDS011;67584;51.400;6.692;2023-11-19T03:37:37;4.05;;;2.33;;
78324;SDS011;67584;51.400;6.692;2023-11-19T03:40:04;11.35;;;3.08;;
78324;SDS011;67584;51.400;6.692;2023-11-19T03:42:31;9.10;;;3.78;;
78324;SDS011;67584;51.400;6.692;2023-11-19T03:44:56;9.05;;;3.55;;
78324;SDS011;67584;51.400;6.692;2023-11-19T03:47:23;4.43;;;2.42;;
78324;SDS011;67584;51.400;6.692;2023-11-19T03:49:49;7.07;;;2.70;;
78324;SDS011;67584;51.400;6.692;2023-11-19T03:52:16;8.25;;;2.78;;
78324;SDS011;67584;51.400;6.692;2023-11-19T03:54:42;6.47;;;3.08;;
78324;SDS011;67584;51.400;6.692;2023-11-19T03:57:08;5.80;;;2.50;;
78324;SDS011;67584;51.400;6.692;2023-11-19T03:59:36;5.38;;;2.30;;
78324;SDS011;67584;51.400;6.692;2023-11-19T04:02:02;9.25;;;2.55;;
78324;SDS011;67584;51.400;6.692;2023-11-19T04:04:28;6.88;;;2.45;;
78324;SDS011;67584;51.400;6.692;2023-11-19T04:06:56;7.93;;;2.08;;
78324;SDS011;67584;51.400;6.692;2023-11-19T04:09:23;8.75;;;2.58;;
78324;SDS011;67584;51.400;6.692;2023-11-19T04:11:48;6.05;;;2.17;;
78324;SDS011;67584;51.400;6.692;2023-11-19T04:14:14;6.65;;;2.28;;
78324;SDS011;67584;51.400;6.692;2023-11-19T04:19:09;5.13;;;2.65;;
78324;SDS011;67584;51.400;6.692;2023-11-19T04:21:35;9.52;;;2.90;;
78324;SDS011;67584;51.400;6.692;2023-11-19T04:24:00;10.15;;;2.88;;
78324;SDS011;67584;51.400;6.692;2023-11-19T04:26:26;9.93;;;2.47;;
78324;SDS011;67584;51.400;6.692;2023-11-19T04:28:56;8.27;;;2.80;;
78324;SDS011;67584;51.400;6.692;2023-11-19T04:31:21;8.48;;;2.50;;
78324;SDS011;67584;51.400;6.692;2023-11-19T04:33:47;12.35;;;2.97;;
78324;SDS011;67584;51.400;6.692;2023-11-19T04:36:13;10.48;;;3.72;;
78324;SDS011;67584;51.400;6.692;2023-11-19T04:38:39;10.25;;;2.85;;
78324;SDS011;67584;51.400;6.692;2023-11-19T04:41:05;11.75;;;3.20;;
78324;SDS011;67584;51.400;6.692;2023-11-19T04:43:33;10.02;;;3.33;;
78324;SDS011;67584;51.400;6.692;2023-11-19T04:45:59;4.82;;;2.25;;
78324;SDS011;67584;51.400;6.692;2023-11-19T04:48:25;12.65;;;2.50;;
78324;SDS011;67584;51.400;6.692;2023-11-19T04:50:51;6.93;;;2.80;;
78324;SDS011;67584;51.400;6.692;2023-11-19T04:53:17;9.60;;;2.72;;
78324;SDS011;67584;51.400;6.692;2023-11-19T04:55:43;11.30;;;3.00;;
78324;SDS011;67584;51.400;6.692;2023-11-19T04:58:09;13.48;;;2.85;;
78324;SDS011;67584;51.400;6.692;2023-11-19T05:00:35;14.35;;;2.75;;
78324;SDS011;67584;51.400;6.692;2023-11-19T05:03:01;8.20;;;2.90;;
78324;SDS011;67584;51.400;6.692;2023-11-19T05:05:26;12.57;;;3.22;;
78324;SDS011;67584;51.400;6.692;2023-11-19T05:07:52;5.10;;;2.33;;
78324;SDS011;67584;51.400;6.692;2023-11-19T05:10:18;4.97;;;2.13;;
78324;SDS011;67584;51.400;6.692;2023-11-19T05:12:43;10.98;;;3.28;;
78324;SDS011;67584;51.400;6.692;2023-11-19T05:15:09;9.55;;;2.53;;
78324;SDS011;67584;51.400;6.692;2023-11-19T05:17:37;9.70;;;2.88;;
78324;SDS011;67584;51.400;6.692;2023-11-19T05:20:03;10.20;;;2.80;;
78324;SDS011;67584;51.400;6.692;2023-11-19T05:22:29;12.13;;;3.13;;
78324;SDS011;67584;51.400;6.692;2023-11-19T05:24:54;8.52;;;2.53;;
78324;SDS011;67584;51.400;6.692;2023-11-19T05:27:21;10.40;;;3.35;;
78324;SDS011;67584;51.400;6.692;2023-11-19T05:29:48;9.38;;;2.78;;
78324;SDS011;67584;51.400;6.692;2023-11-19T05:32:14;12.88;;;3.45;;
78324;SDS011;67584;51.400;6.692;2023-11-19T05:34:40;12.50;;;3.58;;
78324;SDS011;67584;51.400;6.692;2023-11-19T05:37:05;8.90;;;3.03;;
78324;SDS011;67584;51.400;6.692;2023-11-19T05:39:31;8.60;;;2.55;;
78324;SDS011;67584;51.400;6.692;2023-11-19T05:41:57;10.55;;;3.00;;
78324;SDS011;67584;51.400;6.692;2023-11-19T05:44:22;14.32;;;4.57;;
78324;SDS011;67584;51.400;6.692;2023-11-19T05:46:48;8.43;;;2.67;;
78324;SDS011;67584;51.400;6.692;2023-11-19T05:49:14;9.93;;;2.83;;
78324;SDS011;67584;51.400;6.692;2023-11-19T05:51:39;8.43;;;2.50;;
78324;SDS011;67584;51.400;6.692;2023-11-19T05:54:09;12.65;;;2.92;;
78324;SDS011;67584;51.400;6.692;2023-11-19T05:56:35;7.50;;;2.78;;
78324;SDS011;67584;51.400;6.692;2023-11-19T05:59:01;7.03;;;2.95;;
78324;SDS011;67584;51.400;6.692;2023-11-19T06:01:32;9.30;;;2.65;;
78324;SDS011;67584;51.400;6.692;2023-11-19T06:04:01;14.13;;;3.50;;
78324;SDS011;67584;51.400;6.692;2023-11-19T06:06:27;12.10;;;3.22;;
78324;SDS011;67584;51.400;6.692;2023-11-19T06:08:53;10.65;;;3.25;;
78324;SDS011;67584;51.400;6.692;2023-11-19T06:11:20;10.93;;;2.97;;
78324;SDS011;67584;51.400;6.692;2023-11-19T06:13:46;10.90;;;3.58;;
78324;SDS011;67584;51.400;6.692;2023-11-19T06:16:16;11.60;;;3.20;;
78324;SDS011;67584;51.400;6.692;2023-11-19T06:18:41;9.05;;;2.83;;
78324;SDS011;67584;51.400;6.692;2023-11-19T06:21:08;9.18;;;2.95;;
78324;SDS011;67584;51.400;6.692;2023-11-19T06:23:34;16.48;;;3.65;;
78324;SDS011;67584;51.400;6.692;2023-11-19T06:26:00;15.93;;;3.60;;
78324;SDS011;67584;51.400;6.692;2023-11-19T06:28:26;10.65;;;3.05;;
78324;SDS011;67584;51.400;6.692;2023-11-19T06:30:52;12.73;;;3.25;;
78324;SDS011;67584;51.400;6.692;2023-11-19T06:33:17;10.73;;;2.72;;
78324;SDS011;67584;51.400;6.692;2023-11-19T06:35:43;8.20;;;2.80;;
78324;SDS011;67584;51.400;6.692;2023-11-19T06:38:08;11.63;;;3.15;;
78324;SDS011;67584;51.400;6.692;2023-11-19T06:40:35;8.65;;;2.95;;
78324;SDS011;67584;51.400;6.692;2023-11-19T06:43:01;8.25;;;3.35;;
78324;SDS011;67584;51.400;6.692;2023-11-19T06:45:28;14.57;;;3.35;;
78324;SDS011;67584;51.400;6.692;2023-11-19T06:47:54;14.13;;;3.45;;
78324;SDS011;67584;51.400;6.692;2023-11-19T06:50:20;9.65;;;3.67;;
78324;SDS011;67584;51.400;6.692;2023-11-19T06:52:46;14.30;;;4.05;;
78324;SDS011;67584;51.400;6.692;2023-11-19T06:55:12;7.47;;;2.95;;
78324;SDS011;67584;51.400;6.692;2023-11-19T06:57:38;11.75;;;3.30;;
78324;SDS011;67584;51.400;6.692;2023-11-19T07:00:05;9.00;;;4.45;;
78324;SDS011;67584;51.400;6.692;2023-11-19T07:02:31;13.85;;;4.35;;
78324;SDS011;67584;51.400;6.692;2023-11-19T07:04:57;8.52;;;3.38;;
78324;SDS011;67584;51.400;6.692;2023-11-19T07:07:22;12.30;;;4.47;;
78324;SDS011;67584;51.400;6.692;2023-11-19T07:09:48;15.93;;;4.07;;
78324;SDS011;67584;51.400;6.692;2023-11-19T07:12:14;12.20;;;3.95;;
78324;SDS011;67584;51.400;6.692;2023-11-19T07:14:40;13.70;;;3.35;;
78324;SDS011;67584;51.400;6.692;2023-11-19T07:17:07;7.32;;;2.67;;
78324;SDS011;67584;51.400;6.692;2023-11-19T07:19:34;13.98;;;4.82;;
78324;SDS011;67584;51.400;6.692;2023-11-19T07:22:01;12.10;;;3.30;;
78324;SDS011;67584;51.400;6.692;2023-11-19T07:24:27;11.57;;;2.75;;
78324;SDS011;67584;51.400;6.692;2023-11-19T07:26:56;13.50;;;3.25;;
78324;SDS011;67584;51.400;6.692;2023-11-19T07:29:22;11.63;;;3.20;;
78324;SDS011;67584;51.400;6.692;2023-11-19T07:31:48;11.20;;;3.08;;
78324;SDS011;67584;51.400;6.692;2023-11-19T07:34:14;7.85;;;3.05;;
78324;SDS011;67584;51.400;6.692;2023-11-19T07:36:40;9.80;;;3.53;;
78324;SDS011;67584;51.400;6.692;2023-11-19T07:39:05;11.65;;;2.60;;
78324;SDS011;67584;51.400;6.692;2023-11-19T07:41:32;14.70;;;4.32;;
78324;SDS011;67584;51.400;6.692;2023-11-19T07:43:58;15.02;;;4.55;;
78324;SDS011;67584;51.400;6.692;2023-11-19T07:46:23;12.48;;;4.18;;
78324;SDS011;67584;51.400;6.692;2023-11-19T07:48:50;15.68;;;3.70;;
78324;SDS011;67584;51.400;6.692;2023-11-19T07:51:17;11.38;;;5.38;;
78324;SDS011;67584;51.400;6.692;2023-11-19T07:53:43;13.18;;;4.28;;
78324;SDS011;67584;51.400;6.692;2023-11-19T07:56:08;13.15;;;3.17;;
78324;SDS011;67584;51.400;6.692;2023-11-19T07:58:35;9.80;;;3.42;;
78324;SDS011;67584;51.400;6.692;2023-11-19T08:01:01;7.35;;;2.92;;
78324;SDS011;67584;51.400;6.692;2023-11-19T08:03:27;11.57;;;3.33;;
78324;SDS011;67584;51.400;6.692;2023-11-19T08:05:57;10.98;;;2.83;;
78324;SDS011;67584;51.400;6.692;2023-11-19T08:08:23;9.88;;;2.90;;
78324;SDS011;67584;51.400;6.692;2023-11-19T08:10:49;9.57;;;2.90;;
78324;SDS011;67584;51.400;6.692;2023-11-19T08:13:16;14.80;;;3.78;;
78324;SDS011;67584;51.400;6.692;2023-11-19T08:15:45;8.95;;;3.47;;
78324;SDS011;67584;51.400;6.692;2023-11-19T08:18:11;16.23;;;3.83;;
78324;SDS011;67584;51.400;6.692;2023-11-19T08:20:37;10.15;;;3.00;;
78324;SDS011;67584;51.400;6.692;2023-11-19T08:23:02;11.55;;;3.80;;
78324;SDS011;67584;51.400;6.692;2023-11-19T08:25:31;11.43;;;3.40;;
78324;SDS011;67584;51.400;6.692;2023-11-19T08:27:59;13.27;;;3.20;;
78324;SDS011;67584;51.400;6.692;2023-11-19T08:30:25;14.63;;;4.07;;
78324;SDS011;67584;51.400;6.692;2023-11-19T08:32:51;14.88;;;3.47;;
78324;SDS011;67584;51.400;6.692;2023-11-19T08:35:16;14.50;;;3.42;;
78324;SDS011;67584;51.400;6.692;2023-11-19T08:37:42;12.02;;;3.90;;
78324;SDS011;67584;51.400;6.692;2023-11-19T08:40:08;14.20;;;3.67;;
78324;SDS011;67584;51.400;6.692;2023-11-19T08:42:34;13.02;;;3.28;;
78324;SDS011;67584;51.400;6.692;2023-11-19T08:45:00;9.18;;;3.42;;
78324;SDS011;67584;51.400;6.692;2023-11-19T08:47:25;14.77;;;3.95;;
78324;SDS011;67584;51.400;6.692;2023-11-19T08:49:51;13.02;;;3.58;;
78324;SDS011;67584;51.400;6.692;2023-11-19T08:52:17;8.07;;;3.60;;
78324;SDS011;67584;51.400;6.692;2023-11-19T08:54:43;11.73;;;3.78;;
78324;SDS011;67584;51.400;6.692;2023-11-19T08:57:09;9.77;;;3.50;;
78324;SDS011;67584;51.400;6.692;2023-11-19T08:59:35;11.63;;;3.97;;
78324;SDS011;67584;51.400;6.692;2023-11-19T09:02:02;11.50;;;4.32;;
78324;SDS011;67584;51.400;6.692;2023-11-19T09:04:29;16.20;;;4.70;;
78324;SDS011;67584;51.400;6.692;2023-11-19T09:06:55;6.22;;;3.00;;
78324;SDS011;67584;51.400;6.692;2023-11-19T09:09:22;13.20;;;4.25;;
78324;SDS011;67584;51.400;6.692;2023-11-19T09:11:48;13.23;;;3.58;;
78324;SDS011;67584;51.400;6.692;2023-11-19T09:14:14;13.55;;;3.17;;
78324;SDS011;67584;51.400;6.692;2023-11-19T09:16:39;13.35;;;3.70;;
78324;SDS011;67584;51.400;6.692;2023-11-19T09:19:05;7.70;;;3.13;;
78324;SDS011;67584;51.400;6.692;2023-11-19T09:21:33;13.15;;;4.00;;
78324;SDS011;67584;51.400;6.692;2023-11-19T09:24:01;12.55;;;3.88;;
78324;SDS011;67584;51.400;6.692;2023-11-19T09:26:27;8.55;;;3.50;;
78324;SDS011;67584;51.400;6.692;2023-11-19T09:28:53;9.90;;;3.72;;
78324;SDS011;67584;51.400;6.692;2023-11-19T09:31:18;10.27;;;3.47;;
78324;SDS011;67584;51.400;6.692;2023-11-19T09:33:44;14.80;;;3.60;;
78324;SDS011;67584;51.400;6.692;2023-11-19T09:36:13;11.90;;;3.53;;
78324;SDS011;67584;51.400;6.692;2023-11-19T09:38:40;10.48;;;4.25;;
78324;SDS011;67584;51.400;6.692;2023-11-19T09:41:06;11.35;;;3.85;;
78324;SDS011;67584;51.400;6.692;2023-11-19T09:43:35;8.23;;;2.92;;
78324;SDS011;67584;51.400;6.692;2023-11-19T09:46:07;10.30;;;3.78;;
78324;SDS011;67584;51.400;6.692;2023-11-19T09:48:37;15.52;;;4.10;;
78324;SDS011;67584;51.400;6.692;2023-11-19T09:51:06;15.88;;;4.45;;
78324;SDS011;67584;51.400;6.692;2023-11-19T09:53:33;7.85;;;3.60;;
78324;SDS011;67584;51.400;6.692;2023-11-19T09:56:01;14.30;;;4.30;;
78324;SDS011;67584;51.400;6.692;2023-11-19T09:58:31;11.02;;;3.33;;
78324;SDS011;67584;51.400;6.692;2023-11-19T10:00:58;11.45;;;3.30;;
78324;SDS011;67584;51.400;6.692;2023-11-19T10:03:30;9.07;;;3.40;;
78324;SDS011;67584;51.400;6.692;2023-11-19T10:06:03;13.70;;;3.90;;
78324;SDS011;67584;51.400;6.692;2023-11-19T10:08:29;9.98;;;2.97;;
78324;SDS011;67584;51.400;6.692;2023-11-19T10:10:55;11.98;;;3.78;;
78324;SDS011;67584;51.400;6.692;2023-11-19T10:13:26;13.60;;;3.45;;
78324;SDS011;67584;51.400;6.692;2023-11-19T10:15:52;17.05;;;4.57;;
78324;SDS011;67584;51.400;6.692;2023-11-19T10:18:23;10.23;;;3.67;;
78324;SDS011;67584;51.400;6.692;2023-11-19T10:20:49;11.75;;;3.05;;
78324;SDS011;67584;51.400;6.692;2023-11-19T10:23:15;10.45;;;2.95;;
78324;SDS011;67584;51.400;6.692;2023-11-19T10:25:41;15.43;;;3.22;;
78324;SDS011;67584;51.400;6.692;2023-11-19T10:28:07;12.00;;;4.25;;
78324;SDS011;67584;51.400;6.692;2023-11-19T10:30:32;14.30;;;3.53;;
78324;SDS011;67584;51.400;6.692;2023-11-19T10:33:03;13.38;;;3.67;;
78324;SDS011;67584;51.400;6.692;2023-11-19T10:35:37;10.52;;;3.30;;
78324;SDS011;67584;51.400;6.692;2023-11-19T10:38:19;15.85;;;3.50;;
78324;SDS011;67584;51.400;6.692;2023-11-19T10:40:46;14.15;;;3.92;;
78324;SDS011;67584;51.400;6.692;2023-11-19T10:43:12;13.25;;;3.88;;
78324;SDS011;67584;51.400;6.692;2023-11-19T10:45:38;7.88;;;2.55;;
78324;SDS011;67584;51.400;6.692;2023-11-19T10:48:04;9.23;;;3.30;;
78324;SDS011;67584;51.400;6.692;2023-11-19T10:50:33;10.18;;;3.20;;
78324;SDS011;67584;51.400;6.692;2023-11-19T10:53:00;9.82;;;3.50;;
78324;SDS011;67584;51.400;6.692;2023-11-19T10:55:27;9.55;;;3.15;;
78324;SDS011;67584;51.400;6.692;2023-11-19T10:57:56;12.77;;;4.22;;
78324;SDS011;67584;51.400;6.692;2023-11-19T11:00:26;12.35;;;3.63;;
78324;SDS011;67584;51.400;6.692;2023-11-19T11:05:43;15.35;;;4.40;;
78324;SDS011;67584;51.400;6.692;2023-11-19T11:08:12;10.68;;;3.60;;
78324;SDS011;67584;51.400;6.692;2023-11-19T11:10:39;15.25;;;3.80;;
78324;SDS011;67584;51.400;6.692;2023-11-19T11:13:09;11.05;;;3.22;;
78324;SDS011;67584;51.400;6.692;2023-11-19T11:15:35;12.85;;;3.15;;
78324;SDS011;67584;51.400;6.692;2023-11-19T11:18:02;7.80;;;3.00;;
78324;SDS011;67584;51.400;6.692;2023-11-19T11:20:31;10.60;;;3.05;;
78324;SDS011;67584;51.400;6.692;2023-11-19T11:28:56;10.18;;;2.88;;
78324;SDS011;67584;51.400;6.692;2023-11-19T11:36:41;10.63;;;2.88;;
78324;SDS011;67584;51.400;6.692;2023-11-19T11:39:32;9.48;;;3.08;;
78324;SDS011;67584;51.400;6.692;2023-11-19T11:45:02;9.95;;;3.45;;
78324;SDS011;67584;51.400;6.692;2023-11-19T11:50:16;8.68;;;2.97;;
78324;SDS011;67584;51.400;6.692;2023-11-19T11:55:26;13.35;;;3.53;;
78324;SDS011;67584;51.400;6.692;2023-11-19T11:58:02;10.43;;;3.03;;
78324;SDS011;67584;51.400;6.692;2023-11-19T12:02:55;11.82;;;3.72;;
78324;SDS011;67584;51.400;6.692;2023-11-19T12:05:22;6.18;;;2.22;;
78324;SDS011;67584;51.400;6.692;2023-11-19T12:07:59;8.00;;;3.20;;
78324;SDS011;67584;51.400;6.692;2023-11-19T12:10:28;7.65;;;2.90;;
78324;SDS011;67584;51.400;6.692;2023-11-19T12:13:01;10.32;;;2.95;;
78324;SDS011;67584;51.400;6.692;2023-11-19T12:15:30;9.50;;;3.10;;
78324;SDS011;67584;51.400;6.692;2023-11-19T12:17:55;10.90;;;3.60;;
78324;SDS011;67584;51.400;6.692;2023-11-19T12:20:22;7.78;;;2.53;;
78324;SDS011;67584;51.400;6.692;2023-11-19T12:22:49;9.32;;;2.80;;
78324;SDS011;67584;51.400;6.692;2023-11-19T12:25:16;8.25;;;3.65;;
78324;SDS011;67584;51.400;6.692;2023-11-19T12:27:49;9.98;;;3.30;;
78324;SDS011;67584;51.400;6.692;2023-11-19T12:30:25;8.80;;;3.53;;
78324;SDS011;67584;51.400;6.692;2023-11-19T12:32:51;10.77;;;3.00;;
78324;SDS011;67584;51.400;6.692;2023-11-19T12:35:21;11.32;;;3.20;;
78324;SDS011;67584;51.400;6.692;2023-11-19T12:37:48;12.80;;;3.45;;
78324;SDS011;67584;51.400;6.692;2023-11-19T12:40:15;8.85;;;2.97;;
78324;SDS011;67584;51.400;6.692;2023-11-19T12:42:46;8.05;;;3.17;;
78324;SDS011;67584;51.400;6.692;2023-11-19T12:45:15;14.68;;;3.75;;
78324;SDS011;67584;51.400;6.692;2023-11-19T12:47:44;7.13;;;2.67;;
78324;SDS011;67584;51.400;6.692;2023-11-19T12:50:14;12.20;;;3.15;;
78324;SDS011;67584;51.400;6.692;2023-11-19T12:52:42;6.03;;;2.55;;
78324;SDS011;67584;51.400;6.692;2023-11-19T12:55:27;6.20;;;2.92;;
78324;SDS011;67584;51.400;6.692;2023-11-19T12:57:54;6.65;;;2.97;;
78324;SDS011;67584;51.400;6.692;2023-11-19T13:00:24;7.07;;;2.92;;
78324;SDS011;67584;51.400;6.692;2023-11-19T13:05:28;5.18;;;2.88;;
78324;SDS011;67584;51.400;6.692;2023-11-19T13:07:59;10.73;;;2.60;;
78324;SDS011;67584;51.400;6.692;2023-11-19T13:10:30;11.13;;;3.67;;
78324;SDS011;67584;51.400;6.692;2023-11-19T13:15:29;5.28;;;3.00;;
78324;SDS011;67584;51.400;6.692;2023-11-19T13:17:54;7.53;;;2.90;;
78324;SDS011;67584;51.400;6.692;2023-11-19T13:20:20;13.82;;;3.58;;
78324;SDS011;67584;51.400;6.692;2023-11-19T13:25:29;11.55;;;3.55;;
78324;SDS011;67584;51.400;6.692;2023-11-19T13:27:56;13.57;;;3.42;;
78324;SDS011;67584;51.400;6.692;2023-11-19T13:30:22;11.63;;;3.38;;
78324;SDS011;67584;51.400;6.692;2023-11-19T13:32:49;7.70;;;2.83;;
78324;SDS011;67584;51.400;6.692;2023-11-19T13:35:16;11.20;;;3.45;;
78324;SDS011;67584;51.400;6.692;2023-11-19T13:37:42;11.50;;;3.88;;
78324;SDS011;67584;51.400;6.692;2023-11-19T13:40:09;8.55;;;3.80;;
78324;SDS011;67584;51.400;6.692;2023-11-19T13:42:41;7.93;;;3.33;;
78324;SDS011;67584;51.400;6.692;2023-11-19T13:45:11;9.23;;;3.38;;
78324;SDS011;67584;51.400;6.692;2023-11-19T13:47:38;9.45;;;3.20;;
78324;SDS011;67584;51.400;6.692;2023-11-19T13:50:17;9.73;;;3.33;;
78324;SDS011;67584;51.400;6.692;2023-11-19T13:52:43;11.52;;;3.55;;
78324;SDS011;67584;51.400;6.692;2023-11-19T13:55:12;10.57;;;3.22;;
78324;SDS011;67584;51.400;6.692;2023-11-19T13:57:38;6.65;;;2.40;;
78324;SDS011;67584;51.400;6.692;2023-11-19T14:00:06;9.95;;;3.63;;
78324;SDS011;67584;51.400;6.692;2023-11-19T14:02:50;8.98;;;3.33;;
78324;SDS011;67584;51.400;6.692;2023-11-19T14:05:17;6.32;;;3.15;;
78324;SDS011;67584;51.400;6.692;2023-11-19T14:07:43;10.13;;;3.25;;
78324;SDS011;67584;51.400;6.692;2023-11-19T14:10:09;10.75;;;3.53;;
78324;SDS011;67584;51.400;6.692;2023-11-19T14:12:38;13.77;;;4.10;;
78324;SDS011;67584;51.400;6.692;2023-11-19T14:15:08;16.40;;;3.92;;
78324;SDS011;67584;51.400;6.692;2023-11-19T14:17:35;13.90;;;3.88;;
78324;SDS011;67584;51.400;6.692;2023-11-19T14:20:05;13.52;;;3.42;;
78324;SDS011;67584;51.400;6.692;2023-11-19T14:22:38;8.10;;;2.63;;
78324;SDS011;67584;51.400;6.692;2023-11-19T14:25:05;6.63;;;3.53;;
78324;SDS011;67584;51.400;6.692;2023-11-19T14:27:35;6.70;;;3.25;;
78324;SDS011;67584;51.400;6.692;2023-11-19T14:30:02;14.80;;;3.28;;
78324;SDS011;67584;51.400;6.692;2023-11-19T14:32:29;11.68;;;4.20;;
78324;SDS011;67584;51.400;6.692;2023-11-19T14:34:54;9.05;;;2.78;;
78324;SDS011;67584;51.400;6.692;2023-11-19T14:37:20;7.68;;;2.75;;
78324;SDS011;67584;51.400;6.692;2023-11-19T14:39:49;8.30;;;2.88;;
78324;SDS011;67584;51.400;6.692;2023-11-19T14:42:18;10.73;;;4.72;;
78324;SDS011;67584;51.400;6.692;2023-11-19T14:44:44;15.10;;;4.45;;
78324;SDS011;67584;51.400;6.692;2023-11-19T14:47:10;7.90;;;2.92;;
78324;SDS011;67584;51.400;6.692;2023-11-19T14:49:36;10.75;;;3.25;;
78324;SDS011;67584;51.400;6.692;2023-11-19T14:52:03;9.60;;;2.65;;
78324;SDS011;67584;51.400;6.692;2023-11-19T14:54:29;11.55;;;3.17;;
78324;SDS011;67584;51.400;6.692;2023-11-19T14:56:56;6.50;;;2.80;;
78324;SDS011;67584;51.400;6.692;2023-11-19T14:59:21;13.65;;;3.97;;
78324;SDS011;67584;51.400;6.692;2023-11-19T15:01:47;8.75;;;3.13;;
78324;SDS011;67584;51.400;6.692;2023-11-19T15:04:13;12.23;;;3.20;;
78324;SDS011;67584;51.400;6.692;2023-11-19T15:06:38;5.43;;;2.75;;
78324;SDS011;67584;51.400;6.692;2023-11-19T15:09:04;8.52;;;3.50;;
78324;SDS011;67584;51.400;6.692;2023-11-19T15:11:32;8.77;;;3.22;;
78324;SDS011;67584;51.400;6.692;2023-11-19T15:13:58;10.20;;;4.60;;
78324;SDS011;67584;51.400;6.692;2023-11-19T15:16:25;5.57;;;2.72;;
78324;SDS011;67584;51.400;6.692;2023-11-19T15:18:57;6.55;;;2.70;;